createdAt,value
2023-05-14T00:01:48.943Z,10.90
2023-05-14T00:04:17.276Z,10.90
2023-05-14T00:06:45.263Z,10.80
2023-05-14T00:09:14.645Z,10.70
2023-05-14T00:11:42.969Z,10.60
2023-05-14T00:14:11.050Z,10.50
2023-05-14T00:16:39.139Z,10.40
2023-05-14T00:19:07.384Z,10.30
2023-05-14T00:21:35.758Z,10.30
2023-05-14T00:24:03.938Z,10.20
2023-05-14T00:26:33.265Z,10.10
2023-05-14T00:29:01.495Z,10.10
2023-05-14T00:31:29.547Z,10.00
2023-05-14T00:33:57.656Z,10.00
2023-05-14T00:36:25.793Z,9.90
2023-05-14T00:38:53.782Z,9.80
2023-05-14T00:41:22.290Z,9.70
2023-05-14T00:43:52.181Z,9.70
2023-05-14T00:46:20.458Z,9.70
2023-05-14T00:48:49.739Z,9.60
2023-05-14T00:51:19.080Z,9.50
2023-05-14T00:53:47.168Z,9.40
2023-05-14T00:56:16.528Z,9.40
2023-05-14T00:58:44.653Z,9.40
2023-05-14T01:01:15.394Z,9.30
2023-05-14T01:03:44.059Z,9.30
2023-05-14T01:06:18.213Z,9.20
2023-05-14T01:08:54.432Z,9.20
2023-05-14T01:11:29.016Z,9.20
2023-05-14T01:14:04.380Z,9.10
2023-05-14T01:16:35.155Z,9.10
2023-05-14T01:19:06.583Z,9.00
2023-05-14T01:21:40.937Z,9.00
2023-05-14T01:24:09.363Z,8.90
2023-05-14T01:26:38.196Z,8.90
2023-05-14T01:29:14.751Z,8.90
2023-05-14T01:31:46.743Z,8.80
2023-05-14T01:34:15.841Z,8.80
2023-05-14T01:36:45.667Z,8.70
2023-05-14T01:39:15.685Z,8.60
2023-05-14T01:41:44.053Z,8.60
2023-05-14T01:44:12.893Z,8.50
2023-05-14T01:46:41.092Z,8.50
2023-05-14T01:49:09.185Z,8.40
2023-05-14T01:51:37.795Z,8.40
2023-05-14T01:54:07.197Z,8.20
2023-05-14T01:56:35.312Z,8.20
2023-05-14T01:59:03.310Z,8.10
2023-05-14T02:01:31.777Z,8.10
2023-05-14T02:04:01.148Z,7.90
2023-05-14T02:06:29.267Z,7.90
2023-05-14T02:08:57.382Z,7.80
2023-05-14T02:11:26.758Z,7.80
2023-05-14T02:13:54.756Z,7.80
2023-05-14T02:16:22.934Z,7.80
2023-05-14T02:18:52.898Z,7.80
2023-05-14T02:21:21.008Z,7.80
2023-05-14T02:23:49.604Z,7.80
2023-05-14T02:26:17.722Z,7.70
2023-05-14T02:28:47.048Z,7.70
2023-05-14T02:31:19.423Z,7.70
2023-05-14T02:33:47.612Z,7.70
2023-05-14T02:36:15.679Z,7.70
2023-05-14T02:38:43.764Z,7.80
2023-05-14T02:41:11.861Z,7.80
2023-05-14T02:43:39.843Z,7.80
2023-05-14T02:46:09.357Z,7.80
2023-05-14T02:48:37.507Z,7.80
2023-05-14T02:51:05.694Z,7.80
2023-05-14T02:53:33.732Z,7.80
2023-05-14T02:56:01.814Z,7.80
2023-05-14T02:58:29.887Z,7.80
2023-05-14T03:00:58.082Z,7.80
2023-05-14T03:03:28.083Z,7.80
2023-05-14T03:05:56.531Z,7.90
2023-05-14T03:08:24.555Z,7.90
2023-05-14T03:10:52.882Z,7.90
2023-05-14T03:13:21.022Z,8.00
2023-05-14T03:15:49.274Z,8.00
2023-05-14T03:18:17.500Z,8.00
2023-05-14T03:20:48.695Z,8.00
2023-05-14T03:23:16.754Z,8.10
2023-05-14T03:25:44.838Z,8.10
2023-05-14T03:28:12.909Z,8.10
2023-05-14T03:30:41.060Z,8.10
2023-05-14T03:33:09.378Z,8.20
2023-05-14T03:35:37.533Z,8.20
2023-05-14T03:38:07.529Z,8.20
2023-05-14T03:40:36.178Z,8.20
2023-05-14T03:43:04.208Z,8.30
2023-05-14T03:45:32.281Z,8.30
2023-05-14T03:48:00.600Z,8.40
2023-05-14T03:50:28.857Z,8.50
2023-05-14T03:52:56.868Z,8.50
2023-05-14T03:55:26.422Z,8.60
2023-05-14T03:57:54.444Z,8.60
2023-05-14T04:00:22.894Z,8.70
2023-05-14T04:02:52.977Z,8.70
2023-05-14T04:05:21.247Z,8.70
2023-05-14T04:07:49.316Z,8.70
2023-05-14T04:10:17.412Z,8.80
2023-05-14T04:12:46.882Z,8.90
2023-05-14T04:15:15.029Z,9.00
2023-05-14T04:17:44.160Z,9.10
2023-05-14T04:20:14.082Z,9.20
2023-05-14T04:22:42.229Z,9.30
2023-05-14T04:25:10.655Z,9.40
2023-05-14T04:27:38.667Z,9.50
2023-05-14T04:30:09.772Z,9.60
2023-05-14T04:32:37.968Z,9.80
2023-05-14T04:35:07.280Z,10.00
2023-05-14T04:37:35.323Z,10.20
2023-05-14T04:40:03.368Z,10.30
2023-05-14T04:42:31.479Z,10.50
2023-05-14T04:44:59.711Z,10.70
2023-05-14T04:47:29.790Z,10.90
2023-05-14T04:49:58.455Z,11.20
2023-05-14T04:52:26.844Z,11.50
2023-05-14T04:54:54.955Z,11.70
2023-05-14T04:57:23.027Z,11.90
2023-05-14T04:59:51.171Z,12.30
2023-05-14T05:02:19.375Z,12.70
2023-05-14T05:04:49.094Z,12.80
2023-05-14T05:07:17.176Z,13.10
2023-05-14T05:09:45.425Z,13.50
2023-05-14T05:12:13.651Z,13.50
2023-05-14T05:14:44.306Z,13.80
2023-05-14T05:17:12.491Z,14.00
2023-05-14T05:19:44.145Z,14.10
2023-05-14T05:22:14.114Z,14.30
2023-05-14T05:24:42.292Z,14.00
2023-05-14T05:27:10.318Z,14.00
2023-05-14T05:29:38.562Z,13.70
2023-05-14T05:32:07.886Z,13.70
2023-05-14T05:34:36.536Z,13.60
2023-05-14T05:37:06.006Z,13.80
2023-05-14T05:39:35.725Z,14.00
2023-05-14T05:42:03.853Z,14.20
2023-05-14T05:44:32.108Z,14.40
2023-05-14T05:47:00.777Z,14.60
2023-05-14T05:49:28.977Z,14.80
2023-05-14T05:51:57.023Z,15.00
2023-05-14T05:54:25.788Z,14.90
2023-05-14T05:56:55.140Z,14.70
2023-05-14T05:59:23.167Z,14.90
2023-05-14T06:01:51.387Z,15.10
2023-05-14T06:04:19.723Z,15.30
2023-05-14T06:06:47.771Z,15.30
2023-05-14T06:09:16.045Z,15.40
2023-05-14T06:11:44.065Z,15.50
2023-05-14T06:14:13.524Z,15.70
2023-05-14T06:16:41.681Z,15.80
2023-05-14T06:19:10.171Z,15.50
2023-05-14T06:21:38.368Z,15.60
2023-05-14T06:24:07.222Z,15.80
2023-05-14T06:26:35.288Z,15.90
2023-05-14T06:29:03.324Z,15.90
2023-05-14T06:31:32.997Z,16.10
2023-05-14T06:34:01.055Z,16.30
2023-05-14T06:36:29.125Z,16.50
2023-05-14T06:38:57.113Z,16.60
2023-05-14T06:41:25.134Z,16.20
2023-05-14T06:43:53.165Z,16.20
2023-05-14T06:46:21.251Z,16.40
2023-05-14T06:48:50.727Z,16.50
2023-05-14T06:51:18.827Z,16.60
2023-05-14T06:53:46.856Z,16.50
2023-05-14T06:56:14.918Z,16.20
2023-05-14T06:58:42.980Z,16.00
2023-05-14T07:01:11.217Z,16.20
2023-05-14T07:03:39.320Z,16.30
2023-05-14T07:06:08.904Z,16.40
2023-05-14T07:08:37.099Z,16.50
2023-05-14T07:11:05.192Z,16.20
2023-05-14T07:13:33.397Z,16.50
2023-05-14T07:16:01.512Z,16.80
2023-05-14T07:18:29.575Z,16.50
2023-05-14T07:20:57.627Z,16.80
2023-05-14T07:23:27.673Z,16.90
2023-05-14T07:25:55.789Z,16.90
2023-05-14T07:28:23.845Z,16.80
2023-05-14T07:30:51.927Z,16.80
2023-05-14T07:33:19.944Z,16.90
2023-05-14T07:35:48.029Z,16.70
2023-05-14T07:38:16.344Z,16.80
2023-05-14T07:40:46.084Z,16.80
2023-05-14T07:43:15.314Z,16.70
2023-05-14T07:45:43.514Z,16.60
2023-05-14T07:48:11.763Z,16.10
2023-05-14T07:50:40.110Z,16.20
2023-05-14T07:53:08.111Z,16.20
2023-05-14T07:55:36.132Z,16.10
2023-05-14T07:58:05.590Z,16.00
2023-05-14T08:00:33.641Z,16.10
2023-05-14T08:03:01.772Z,16.50
2023-05-14T08:05:29.929Z,17.00
2023-05-14T08:07:57.952Z,17.10
2023-05-14T08:10:26.562Z,17.00
2023-05-14T08:12:54.970Z,16.80
2023-05-14T08:15:27.078Z,17.00
2023-05-14T08:17:56.836Z,17.10
2023-05-14T08:20:25.320Z,17.00
2023-05-14T08:22:53.571Z,17.00
2023-05-14T08:25:21.608Z,16.80
2023-05-14T08:27:49.689Z,16.80
2023-05-14T08:30:18.049Z,16.40
2023-05-14T08:32:47.411Z,16.70
2023-05-14T08:35:16.082Z,16.60
2023-05-14T08:37:44.143Z,16.50
2023-05-14T08:40:13.278Z,16.80
2023-05-14T08:42:41.748Z,16.80
2023-05-14T08:45:16.049Z,17.20
2023-05-14T08:47:48.815Z,16.90
2023-05-14T08:50:17.202Z,16.90
2023-05-14T08:52:45.568Z,16.80
2023-05-14T08:55:14.155Z,16.60
2023-05-14T08:57:42.474Z,16.60
2023-05-14T09:00:12.212Z,16.50
2023-05-14T09:02:41.798Z,16.10
2023-05-14T09:05:12.531Z,16.10
2023-05-14T09:07:40.888Z,16.40
2023-05-14T09:10:10.471Z,16.80
2023-05-14T09:12:38.614Z,17.10
2023-05-14T09:15:08.038Z,17.50
2023-05-14T09:17:36.267Z,18.10
2023-05-14T09:20:05.010Z,18.00
2023-05-14T09:22:35.667Z,18.10
2023-05-14T09:25:05.520Z,17.80
2023-05-14T09:27:34.368Z,17.70
2023-05-14T09:30:07.223Z,17.80
2023-05-14T09:32:40.117Z,17.70
2023-05-14T09:35:18.001Z,17.60
2023-05-14T09:37:49.277Z,17.70
2023-05-14T09:40:19.509Z,17.80
2023-05-14T09:42:48.239Z,18.00
2023-05-14T09:45:16.835Z,17.60
2023-05-14T09:47:45.411Z,17.90
2023-05-14T09:50:13.782Z,18.20
2023-05-14T09:52:42.295Z,18.50
2023-05-14T09:55:11.715Z,18.50
2023-05-14T09:57:39.766Z,18.50
2023-05-14T10:00:10.250Z,18.60
2023-05-14T10:02:41.293Z,18.60
2023-05-14T10:05:10.415Z,19.00
2023-05-14T10:07:42.502Z,18.90
2023-05-14T10:10:16.395Z,18.90
2023-05-14T10:12:47.288Z,18.90
2023-05-14T10:15:19.373Z,19.00
2023-05-14T10:17:50.843Z,19.00
2023-05-14T10:20:19.248Z,19.20
2023-05-14T10:22:47.766Z,19.30
2023-05-14T10:25:17.841Z,19.50
2023-05-14T10:27:46.160Z,19.60
2023-05-14T10:30:14.460Z,19.60
2023-05-14T10:32:44.246Z,19.30
2023-05-14T10:35:20.721Z,19.40
2023-05-14T10:37:51.804Z,19.50
2023-05-14T10:40:24.621Z,19.60
2023-05-14T10:42:53.809Z,19.70
2023-05-14T10:45:24.105Z,19.90
2023-05-14T10:47:52.163Z,19.60
2023-05-14T10:50:20.592Z,19.60
2023-05-14T10:52:48.684Z,19.30
2023-05-14T10:55:18.032Z,19.30
2023-05-14T10:57:48.265Z,19.20
2023-05-14T11:00:17.019Z,18.90
2023-05-14T11:02:46.878Z,18.80
2023-05-14T11:05:17.525Z,18.50
2023-05-14T11:07:47.666Z,18.50
2023-05-14T11:10:17.304Z,18.30
2023-05-14T11:12:50.876Z,18.20
2023-05-14T11:15:21.470Z,18.10
2023-05-14T11:17:51.297Z,18.10
2023-05-14T11:20:21.431Z,18.10
2023-05-14T11:22:51.688Z,18.10
2023-05-14T11:25:20.573Z,18.10
2023-05-14T11:27:51.420Z,18.30
2023-05-14T11:30:20.923Z,18.20
2023-05-14T11:32:50.337Z,18.40
2023-05-14T11:35:18.914Z,18.30
2023-05-14T11:37:52.584Z,18.40
2023-05-14T11:40:21.215Z,18.60
2023-05-14T11:42:52.358Z,19.00
2023-05-14T11:45:27.003Z,18.80
2023-05-14T11:47:55.192Z,18.70
2023-05-14T11:50:23.792Z,18.50
2023-05-14T11:52:52.144Z,18.60
2023-05-14T11:55:21.030Z,18.50
2023-05-14T11:57:50.451Z,18.40
2023-05-14T12:00:22.260Z,18.20
2023-05-14T12:02:50.750Z,18.30
2023-05-14T12:05:20.783Z,18.00
2023-05-14T12:07:49.084Z,18.00
2023-05-14T12:10:17.161Z,17.90
2023-05-14T12:12:47.954Z,18.40
2023-05-14T12:15:18.151Z,18.90
2023-05-14T12:17:51.780Z,19.30
2023-05-14T12:20:20.207Z,19.60
2023-05-14T12:22:48.477Z,19.60
2023-05-14T12:25:16.842Z,19.70
2023-05-14T12:27:46.495Z,19.70
2023-05-14T12:32:48.881Z,19.20
2023-05-14T12:35:17.250Z,19.20
2023-05-14T12:37:45.271Z,18.90
2023-05-14T12:40:13.733Z,18.90
2023-05-14T12:42:41.820Z,18.60
2023-05-14T12:45:10.265Z,18.60
2023-05-14T12:47:38.471Z,18.70
2023-05-14T12:50:09.141Z,18.70
2023-05-14T12:52:39.756Z,18.60
2023-05-14T12:55:09.643Z,18.60
2023-05-14T12:57:39.056Z,18.60
2023-05-14T13:00:13.013Z,18.60
2023-05-14T13:02:43.667Z,18.60
2023-05-14T13:05:13.599Z,18.60
2023-05-14T13:07:41.951Z,18.50
2023-05-14T13:10:11.429Z,18.40
2023-05-14T13:12:39.771Z,18.10
2023-05-14T13:15:08.894Z,18.00
2023-05-14T13:17:37.547Z,17.90
2023-05-14T13:20:06.874Z,17.90
2023-05-14T13:22:36.300Z,17.50
2023-05-14T13:25:04.942Z,17.30
2023-05-14T13:27:33.754Z,17.20
2023-05-14T13:30:01.765Z,17.00
2023-05-14T13:32:29.768Z,17.00
2023-05-14T13:34:57.818Z,16.80
2023-05-14T13:37:26.106Z,16.90
2023-05-14T13:39:55.944Z,16.90
2023-05-14T13:42:25.053Z,17.00
2023-05-14T13:44:53.077Z,17.10
2023-05-14T13:47:21.147Z,17.20
2023-05-14T13:49:49.357Z,17.20
2023-05-14T13:52:17.887Z,16.90
2023-05-14T13:54:46.273Z,16.90
2023-05-14T13:57:15.788Z,17.00
2023-05-14T13:59:43.929Z,17.10
2023-05-14T14:02:11.972Z,17.20
2023-05-14T14:04:40.040Z,17.20
2023-05-14T14:07:09.014Z,17.20
2023-05-14T14:09:37.012Z,17.10
2023-05-14T14:12:06.108Z,17.10
2023-05-14T14:14:35.604Z,17.10
2023-05-14T14:17:03.585Z,17.20
2023-05-14T14:19:31.620Z,17.30
2023-05-14T14:21:59.654Z,17.20
2023-05-14T14:24:27.818Z,17.00
2023-05-14T14:26:55.818Z,17.00
2023-05-14T14:29:24.035Z,17.30
2023-05-14T14:31:53.546Z,17.50
2023-05-14T14:34:22.073Z,17.60
2023-05-14T14:36:50.101Z,17.50
2023-05-14T14:39:18.631Z,17.60
2023-05-14T14:41:47.677Z,17.60
2023-05-14T14:44:15.849Z,17.80
2023-05-14T14:46:43.961Z,18.00
2023-05-14T14:49:13.351Z,18.20
2023-05-14T14:51:41.865Z,18.40
2023-05-14T14:54:09.950Z,18.60
2023-05-14T14:56:38.139Z,18.70
2023-05-14T14:59:06.150Z,18.60
2023-05-14T15:01:34.360Z,18.70
2023-05-14T15:04:02.666Z,18.50
2023-05-14T15:06:32.148Z,18.50
2023-05-14T15:09:00.433Z,18.50
2023-05-14T15:11:28.888Z,18.60
2023-05-14T15:13:56.924Z,18.30
2023-05-14T15:16:25.092Z,18.00
2023-05-14T15:18:53.224Z,17.90
2023-05-14T15:21:21.429Z,17.60
2023-05-14T15:23:50.840Z,17.50
2023-05-14T15:26:18.939Z,17.10
2023-05-14T15:28:47.069Z,16.80
2023-05-14T15:31:15.172Z,16.60
2023-05-14T15:33:43.301Z,16.70
2023-05-14T15:36:11.330Z,16.80
2023-05-14T15:38:39.489Z,16.80
2023-05-14T15:41:09.009Z,16.90
2023-05-14T15:43:37.020Z,16.80
2023-05-14T15:46:05.074Z,16.90
2023-05-14T15:48:33.135Z,17.00
2023-05-14T15:51:01.217Z,17.10
2023-05-14T15:53:29.353Z,17.10
2023-05-14T15:55:57.449Z,17.30
2023-05-14T15:58:27.593Z,17.30
2023-05-14T16:00:56.058Z,17.10
2023-05-14T16:03:24.223Z,17.00
2023-05-14T16:05:52.395Z,16.80
2023-05-14T16:08:20.398Z,16.90
2023-05-14T16:10:48.422Z,16.90
2023-05-14T16:13:16.362Z,16.80
2023-05-14T16:15:45.728Z,16.70
2023-05-14T16:18:13.722Z,16.70
2023-05-14T16:20:41.791Z,16.60
2023-05-14T16:23:09.942Z,16.40
2023-05-14T16:25:38.289Z,16.30
2023-05-14T16:28:07.922Z,16.30
2023-05-14T16:30:35.924Z,16.10
2023-05-14T16:33:06.451Z,16.10
2023-05-14T16:35:34.549Z,16.10
2023-05-14T16:38:02.677Z,16.10
2023-05-14T16:40:30.736Z,16.10
2023-05-14T16:42:58.718Z,16.20
2023-05-14T16:45:27.028Z,16.20
2023-05-14T16:47:55.487Z,16.20
2023-05-14T16:50:24.883Z,16.20
2023-05-14T16:52:52.865Z,16.20
2023-05-14T16:55:21.037Z,16.20
2023-05-14T16:57:49.068Z,16.10
2023-05-14T17:00:17.921Z,16.10
2023-05-14T17:02:49.111Z,15.90
2023-05-14T17:05:17.469Z,15.90
2023-05-14T17:07:46.778Z,15.80
2023-05-14T17:10:15.237Z,15.80
2023-05-14T17:12:43.507Z,15.80
2023-05-14T17:15:12.408Z,15.70
2023-05-14T17:17:40.701Z,15.80
2023-05-14T17:20:09.930Z,15.80
2023-05-14T17:22:38.152Z,15.80
2023-05-14T17:25:09.122Z,15.80
2023-05-14T17:27:37.212Z,15.70
2023-05-14T17:30:06.809Z,15.70
2023-05-14T17:32:34.934Z,15.60
2023-05-14T17:35:03.120Z,15.60
2023-05-14T17:37:31.115Z,15.60
2023-05-14T17:39:59.216Z,15.70
2023-05-14T17:42:28.611Z,15.70
2023-05-14T17:44:56.704Z,15.60
2023-05-14T17:47:24.759Z,15.40
2023-05-14T17:49:52.870Z,15.40
2023-05-14T17:52:21.078Z,15.40
2023-05-14T17:54:49.127Z,15.30
2023-05-14T17:57:17.118Z,15.30
2023-05-14T17:59:46.483Z,15.20
2023-05-14T18:02:14.448Z,15.10
2023-05-14T18:04:42.532Z,15.00
2023-05-14T18:07:10.531Z,15.00
2023-05-14T18:09:38.569Z,15.00
2023-05-14T18:12:07.343Z,15.10
2023-05-14T18:14:35.350Z,15.10
2023-05-14T18:17:05.561Z,15.10
2023-05-14T18:19:33.896Z,15.10
2023-05-14T18:22:02.063Z,15.10
2023-05-14T18:24:30.177Z,15.20
2023-05-14T18:26:58.243Z,15.20
2023-05-14T18:29:26.356Z,15.10
2023-05-14T18:31:54.444Z,15.10
2023-05-14T18:34:23.791Z,15.10
2023-05-14T18:36:51.896Z,15.10
2023-05-14T18:39:21.086Z,15.00
2023-05-14T18:41:49.242Z,15.00
2023-05-14T18:44:17.514Z,15.00
2023-05-14T18:46:45.951Z,15.10
2023-05-14T18:49:14.360Z,15.10
2023-05-14T18:51:43.789Z,14.90
2023-05-14T18:54:12.298Z,14.80
2023-05-14T18:56:46.049Z,14.70
2023-05-14T18:59:15.546Z,14.60
2023-05-14T19:01:44.651Z,14.40
2023-05-14T19:04:12.788Z,14.30
2023-05-14T19:06:41.278Z,14.10
2023-05-14T19:09:10.919Z,14.00
2023-05-14T19:11:39.148Z,13.90
2023-05-14T19:14:07.398Z,13.80
2023-05-14T19:16:35.798Z,13.60
2023-05-14T19:19:04.092Z,13.50
2023-05-14T19:21:32.266Z,13.40
2023-05-14T19:24:00.351Z,13.30
2023-05-14T19:26:29.782Z,13.10
2023-05-14T19:28:58.999Z,12.90
2023-05-14T19:31:27.387Z,12.80
2023-05-14T19:33:55.480Z,12.70
2023-05-14T19:36:23.669Z,12.60
2023-05-14T19:38:51.692Z,12.40
2023-05-14T19:41:19.900Z,12.30
2023-05-14T19:43:49.240Z,12.20
2023-05-14T19:46:17.535Z,12.10
2023-05-14T19:48:45.561Z,12.00
2023-05-14T19:51:13.746Z,12.00
2023-05-14T19:53:41.727Z,12.00
2023-05-14T19:56:10.247Z,11.90
2023-05-14T19:58:38.409Z,11.90
2023-05-14T20:01:08.396Z,11.90
2023-05-14T20:03:37.634Z,11.90
2023-05-14T20:06:06.690Z,11.90
2023-05-14T20:08:34.842Z,12.00
2023-05-14T20:11:03.501Z,12.00
2023-05-14T20:13:32.023Z,12.10
2023-05-14T20:16:00.800Z,12.10
2023-05-14T20:18:31.511Z,12.20
2023-05-14T20:21:00.176Z,12.20
2023-05-14T20:23:28.467Z,12.20
2023-05-14T20:25:56.645Z,12.20
2023-05-14T20:28:24.733Z,12.20
2023-05-14T20:30:54.732Z,12.30
2023-05-14T20:33:22.871Z,12.30
2023-05-14T20:35:52.628Z,12.20
2023-05-14T20:38:21.787Z,12.30
2023-05-14T20:40:50.003Z,12.20
2023-05-14T20:43:18.091Z,12.10
2023-05-14T20:45:46.193Z,12.20
2023-05-14T20:48:16.423Z,12.20
2023-05-14T20:50:45.649Z,12.10
2023-05-14T20:53:15.208Z,12.20
2023-05-14T20:55:44.710Z,12.20
2023-05-14T20:58:12.841Z,12.20
2023-05-14T21:00:40.968Z,12.20
2023-05-14T21:03:09.139Z,12.20
2023-05-14T21:05:37.421Z,12.20
2023-05-14T21:08:05.713Z,12.20
2023-05-14T21:10:35.166Z,12.20
2023-05-14T21:13:03.633Z,12.20
2023-05-14T21:15:32.653Z,12.20
2023-05-14T21:18:01.097Z,12.10
2023-05-14T21:20:29.228Z,12.10
2023-05-14T21:22:57.241Z,12.00
2023-05-14T21:25:25.778Z,12.00
2023-05-14T21:27:55.446Z,11.80
2023-05-14T21:30:23.825Z,11.70
2023-05-14T21:32:52.602Z,11.60
2023-05-14T21:35:20.693Z,11.50
2023-05-14T21:37:48.727Z,11.40
2023-05-14T21:40:16.753Z,11.30
2023-05-14T21:42:44.838Z,11.10
2023-05-14T21:45:14.417Z,11.00
2023-05-14T21:47:42.558Z,11.00
2023-05-14T21:50:11.154Z,10.90
2023-05-14T21:52:39.276Z,10.80
2023-05-14T21:55:07.727Z,10.70
2023-05-14T21:57:35.824Z,10.70
2023-05-14T22:00:07.683Z,10.60
2023-05-14T22:02:37.098Z,10.60
2023-05-14T22:05:05.872Z,10.60
2023-05-14T22:07:34.213Z,10.60
2023-05-14T22:10:02.385Z,10.60
2023-05-14T22:12:30.383Z,10.60
2023-05-14T22:14:58.456Z,10.70
2023-05-14T22:17:27.964Z,10.70
2023-05-14T22:19:57.572Z,10.70
2023-05-14T22:22:25.657Z,10.70
2023-05-14T22:24:53.827Z,10.70
2023-05-14T22:27:22.036Z,10.70
2023-05-14T22:29:50.132Z,10.70
2023-05-14T22:32:18.210Z,10.70
2023-05-14T22:34:46.502Z,10.70
2023-05-14T22:37:16.889Z,10.70
2023-05-14T22:39:45.344Z,10.70
2023-05-14T22:42:13.414Z,10.80
2023-05-14T22:44:41.673Z,10.80
2023-05-14T22:47:09.812Z,10.80
2023-05-14T22:49:37.899Z,10.80
2023-05-14T22:52:06.644Z,10.80
2023-05-14T22:54:38.664Z,10.90
2023-05-14T22:57:07.290Z,10.80
2023-05-14T22:59:35.518Z,10.80
2023-05-14T23:02:03.656Z,10.80
2023-05-14T23:04:33.179Z,10.80
2023-05-14T23:07:01.274Z,10.80
2023-05-14T23:09:29.375Z,10.90
2023-05-14T23:11:58.660Z,10.90
2023-05-14T23:14:26.735Z,10.90
2023-05-14T23:16:54.810Z,10.80
2023-05-14T23:19:22.991Z,10.80
2023-05-14T23:21:51.616Z,10.80
2023-05-14T23:24:19.657Z,10.80
2023-05-14T23:26:48.034Z,10.80
2023-05-14T23:29:17.470Z,10.80
2023-05-14T23:31:46.301Z,10.80
2023-05-14T23:34:14.369Z,10.80
2023-05-14T23:36:42.693Z,10.70
2023-05-14T23:39:10.836Z,10.70
2023-05-14T23:41:38.927Z,10.70
2023-05-14T23:44:07.328Z,10.70
2023-05-14T23:46:36.846Z,10.70
2023-05-14T23:49:05.185Z,10.70
2023-05-14T23:51:33.242Z,10.80
2023-05-14T23:54:01.262Z,10.80
2023-05-14T23:56:30.218Z,10.80
2023-05-14T23:58:58.517Z,10.80
